sensor_id;sensor_type;location;lat;lon;timestamp;temperature;humidity
4505;DHT22;2265;48.794;9.520;2023-03-31T00:00:29;12.10;98.00
4505;DHT22;2265;48.794;9.520;2023-03-31T00:02:56;12.10;98.00
4505;DHT22;2265;48.794;9.520;2023-03-31T00:05:26;12.20;98.00
4505;DHT22;2265;48.794;9.520;2023-03-31T00:07:54;12.20;98.00
4505;DHT22;2265;48.794;9.520;2023-03-31T00:10:27;12.20;98.00
4505;DHT22;2265;48.794;9.520;2023-03-31T00:12:56;12.10;98.00
4505;DHT22;2265;48.794;9.520;2023-03-31T00:15:23;12.00;98.00
4505;DHT22;2265;48.794;9.520;2023-03-31T00:17:51;12.10;98.00
4505;DHT22;2265;48.794;9.520;2023-03-31T00:20:18;11.90;98.00
4505;DHT22;2265;48.794;9.520;2023-03-31T00:22:45;11.90;98.00
4505;DHT22;2265;48.794;9.520;2023-03-31T00:25:13;11.80;98.00
4505;DHT22;2265;48.794;9.520;2023-03-31T00:27:42;11.80;98.00
4505;DHT22;2265;48.794;9.520;2023-03-31T00:30:10;11.80;98.00
4505;DHT22;2265;48.794;9.520;2023-03-31T00:32:39;11.90;98.00
4505;DHT22;2265;48.794;9.520;2023-03-31T00:35:06;11.80;98.00
4505;DHT22;2265;48.794;9.520;2023-03-31T00:37:34;12.00;98.00
4505;DHT22;2265;48.794;9.520;2023-03-31T00:40:02;11.90;98.00
4505;DHT22;2265;48.794;9.520;2023-03-31T00:42:39;11.90;98.00
4505;DHT22;2265;48.794;9.520;2023-03-31T00:45:26;12.10;98.00
4505;DHT22;2265;48.794;9.520;2023-03-31T00:47:55;12.10;98.00
4505;DHT22;2265;48.794;9.520;2023-03-31T00:50:26;12.00;98.00
4505;DHT22;2265;48.794;9.520;2023-03-31T00:52:58;12.00;98.00
4505;DHT22;2265;48.794;9.520;2023-03-31T00:55:31;12.10;98.00
4505;DHT22;2265;48.794;9.520;2023-03-31T00:58:00;12.10;98.00
4505;DHT22;2265;48.794;9.520;2023-03-31T01:00:30;12.10;98.00
4505;DHT22;2265;48.794;9.520;2023-03-31T01:03:01;12.00;98.00
4505;DHT22;2265;48.794;9.520;2023-03-31T01:05:33;11.70;98.00
4505;DHT22;2265;48.794;9.520;2023-03-31T01:08:04;11.60;98.00
4505;DHT22;2265;48.794;9.520;2023-03-31T01:10:35;11.50;98.00
4505;DHT22;2265;48.794;9.520;2023-03-31T01:13:07;11.50;98.00
4505;DHT22;2265;48.794;9.520;2023-03-31T01:15:37;11.70;98.00
4505;DHT22;2265;48.794;9.520;2023-03-31T01:18:05;11.90;98.00
4505;DHT22;2265;48.794;9.520;2023-03-31T01:20:40;12.00;98.00
4505;DHT22;2265;48.794;9.520;2023-03-31T01:26:53;12.30;98.00
4505;DHT22;2265;48.794;9.520;2023-03-31T01:29:41;12.50;98.00
4505;DHT22;2265;48.794;9.520;2023-03-31T01:35:45;12.80;98.00
4505;DHT22;2265;48.794;9.520;2023-03-31T01:39:00;12.80;98.00
4505;DHT22;2265;48.794;9.520;2023-03-31T01:41:48;12.90;98.00
4505;DHT22;2265;48.794;9.520;2023-03-31T01:44:27;12.90;98.00
4505;DHT22;2265;48.794;9.520;2023-03-31T01:46:59;12.90;98.00
4505;DHT22;2265;48.794;9.520;2023-03-31T01:49:33;13.00;98.00
4505;DHT22;2265;48.794;9.520;2023-03-31T01:52:10;13.00;98.00
4505;DHT22;2265;48.794;9.520;2023-03-31T01:54:46;13.10;98.00
4505;DHT22;2265;48.794;9.520;2023-03-31T01:57:19;13.00;98.00
4505;DHT22;2265;48.794;9.520;2023-03-31T01:59:54;13.00;98.00
4505;DHT22;2265;48.794;9.520;2023-03-31T02:02:27;13.00;98.00
4505;DHT22;2265;48.794;9.520;2023-03-31T02:05:06;13.00;98.00
4505;DHT22;2265;48.794;9.520;2023-03-31T02:07:42;13.00;98.00
4505;DHT22;2265;48.794;9.520;2023-03-31T02:10:11;13.10;98.00
4505;DHT22;2265;48.794;9.520;2023-03-31T02:12:42;13.20;98.00
4505;DHT22;2265;48.794;9.520;2023-03-31T02:15:17;13.20;98.00
4505;DHT22;2265;48.794;9.520;2023-03-31T02:17:51;13.10;98.00
4505;DHT22;2265;48.794;9.520;2023-03-31T02:20:21;13.10;98.00
4505;DHT22;2265;48.794;9.520;2023-03-31T02:22:51;13.10;98.00
4505;DHT22;2265;48.794;9.520;2023-03-31T02:25:22;13.10;98.00
4505;DHT22;2265;48.794;9.520;2023-03-31T02:27:54;13.00;98.00
4505;DHT22;2265;48.794;9.520;2023-03-31T02:30:24;13.00;98.00
4505;DHT22;2265;48.794;9.520;2023-03-31T02:32:55;12.90;98.00
4505;DHT22;2265;48.794;9.520;2023-03-31T02:35:24;12.80;98.00
4505;DHT22;2265;48.794;9.520;2023-03-31T02:37:51;12.80;98.00
4505;DHT22;2265;48.794;9.520;2023-03-31T02:40:21;12.80;98.00
4505;DHT22;2265;48.794;9.520;2023-03-31T02:42:53;12.80;98.00
4505;DHT22;2265;48.794;9.520;2023-03-31T02:45:39;12.70;98.00
4505;DHT22;2265;48.794;9.520;2023-03-31T02:48:10;12.60;98.00
4505;DHT22;2265;48.794;9.520;2023-03-31T02:51:04;12.60;98.00
4505;DHT22;2265;48.794;9.520;2023-03-31T02:53:47;12.60;98.00
4505;DHT22;2265;48.794;9.520;2023-03-31T02:56:43;12.50;98.00
4505;DHT22;2265;48.794;9.520;2023-03-31T02:59:28;12.50;98.00
4505;DHT22;2265;48.794;9.520;2023-03-31T03:02:17;12.50;98.00
4505;DHT22;2265;48.794;9.520;2023-03-31T03:05:03;12.40;98.00
4505;DHT22;2265;48.794;9.520;2023-03-31T03:07:42;12.40;98.00
4505;DHT22;2265;48.794;9.520;2023-03-31T03:10:17;12.30;98.00
4505;DHT22;2265;48.794;9.520;2023-03-31T03:12:55;12.40;98.00
4505;DHT22;2265;48.794;9.520;2023-03-31T03:15:29;12.40;98.00
4505;DHT22;2265;48.794;9.520;2023-03-31T03:17:58;12.40;98.00
4505;DHT22;2265;48.794;9.520;2023-03-31T03:20:27;12.40;98.00
4505;DHT22;2265;48.794;9.520;2023-03-31T03:22:55;12.30;98.00
4505;DHT22;2265;48.794;9.520;2023-03-31T03:25:22;12.40;98.00
4505;DHT22;2265;48.794;9.520;2023-03-31T03:27:50;12.40;98.00
4505;DHT22;2265;48.794;9.520;2023-03-31T03:30:19;12.30;98.00
4505;DHT22;2265;48.794;9.520;2023-03-31T03:32:47;12.30;98.00
4505;DHT22;2265;48.794;9.520;2023-03-31T03:35:15;12.30;98.00
4505;DHT22;2265;48.794;9.520;2023-03-31T03:37:42;12.30;98.00
4505;DHT22;2265;48.794;9.520;2023-03-31T03:40:10;12.30;98.00
4505;DHT22;2265;48.794;9.520;2023-03-31T03:42:37;12.30;98.00
4505;DHT22;2265;48.794;9.520;2023-03-31T03:45:05;12.30;98.00
4505;DHT22;2265;48.794;9.520;2023-03-31T03:47:32;12.20;98.00
4505;DHT22;2265;48.794;9.520;2023-03-31T03:50:02;12.20;98.00
4505;DHT22;2265;48.794;9.520;2023-03-31T03:52:29;12.20;98.00
4505;DHT22;2265;48.794;9.520;2023-03-31T03:54:56;12.20;98.00
4505;DHT22;2265;48.794;9.520;2023-03-31T03:57:23;12.20;98.00
4505;DHT22;2265;48.794;9.520;2023-03-31T03:59:50;12.20;98.00
4505;DHT22;2265;48.794;9.520;2023-03-31T04:02:18;12.20;98.00
4505;DHT22;2265;48.794;9.520;2023-03-31T04:04:45;12.20;98.00
4505;DHT22;2265;48.794;9.520;2023-03-31T04:07:15;12.20;98.00
4505;DHT22;2265;48.794;9.520;2023-03-31T04:09:42;12.20;98.00
4505;DHT22;2265;48.794;9.520;2023-03-31T04:12:09;12.10;98.00
4505;DHT22;2265;48.794;9.520;2023-03-31T04:14:36;12.10;98.00
4505;DHT22;2265;48.794;9.520;2023-03-31T04:17:03;12.10;98.00
4505;DHT22;2265;48.794;9.520;2023-03-31T04:19:31;12.10;98.00
4505;DHT22;2265;48.794;9.520;2023-03-31T04:21:58;12.20;98.00
4505;DHT22;2265;48.794;9.520;2023-03-31T04:24:28;12.10;98.00
4505;DHT22;2265;48.794;9.520;2023-03-31T04:26:58;12.10;98.00
4505;DHT22;2265;48.794;9.520;2023-03-31T04:29:27;12.00;98.00
4505;DHT22;2265;48.794;9.520;2023-03-31T04:31:58;11.90;98.00
4505;DHT22;2265;48.794;9.520;2023-03-31T04:34:26;11.90;98.00
4505;DHT22;2265;48.794;9.520;2023-03-31T04:37:00;11.90;98.00
4505;DHT22;2265;48.794;9.520;2023-03-31T04:39:30;11.90;98.00
4505;DHT22;2265;48.794;9.520;2023-03-31T04:41:58;11.90;98.00
4505;DHT22;2265;48.794;9.520;2023-03-31T04:44:28;11.90;98.00
4505;DHT22;2265;48.794;9.520;2023-03-31T04:46:56;11.80;98.00
4505;DHT22;2265;48.794;9.520;2023-03-31T04:49:23;11.80;98.00
4505;DHT22;2265;48.794;9.520;2023-03-31T04:51:51;11.80;98.00
4505;DHT22;2265;48.794;9.520;2023-03-31T04:54:19;11.70;98.00
4505;DHT22;2265;48.794;9.520;2023-03-31T04:56:47;11.80;98.00
4505;DHT22;2265;48.794;9.520;2023-03-31T04:59:15;11.80;98.00
4505;DHT22;2265;48.794;9.520;2023-03-31T05:01:42;11.80;98.00
4505;DHT22;2265;48.794;9.520;2023-03-31T05:04:10;11.70;98.00
4505;DHT22;2265;48.794;9.520;2023-03-31T05:06:37;11.60;98.00
4505;DHT22;2265;48.794;9.520;2023-03-31T05:09:05;11.60;98.00
4505;DHT22;2265;48.794;9.520;2023-03-31T05:11:34;11.70;98.00
4505;DHT22;2265;48.794;9.520;2023-03-31T05:14:02;11.70;98.00
4505;DHT22;2265;48.794;9.520;2023-03-31T05:16:29;11.80;98.00
4505;DHT22;2265;48.794;9.520;2023-03-31T05:18:57;11.90;98.00
4505;DHT22;2265;48.794;9.520;2023-03-31T05:21:27;11.80;98.00
4505;DHT22;2265;48.794;9.520;2023-03-31T05:23:55;11.90;98.00
4505;DHT22;2265;48.794;9.520;2023-03-31T05:26:23;12.00;98.00
4505;DHT22;2265;48.794;9.520;2023-03-31T05:28:51;12.00;98.00
4505;DHT22;2265;48.794;9.520;2023-03-31T05:31:21;11.90;98.00
4505;DHT22;2265;48.794;9.520;2023-03-31T05:33:48;11.90;98.00
4505;DHT22;2265;48.794;9.520;2023-03-31T05:36:16;11.90;98.00
4505;DHT22;2265;48.794;9.520;2023-03-31T05:38:43;11.90;98.00
4505;DHT22;2265;48.794;9.520;2023-03-31T05:41:12;11.80;98.00
4505;DHT22;2265;48.794;9.520;2023-03-31T05:43:41;11.80;98.00
4505;DHT22;2265;48.794;9.520;2023-03-31T05:46:08;11.70;98.00
4505;DHT22;2265;48.794;9.520;2023-03-31T05:48:37;11.70;98.00
4505;DHT22;2265;48.794;9.520;2023-03-31T05:51:04;11.70;98.00
4505;DHT22;2265;48.794;9.520;2023-03-31T05:53:31;11.60;98.00
4505;DHT22;2265;48.794;9.520;2023-03-31T05:55:59;11.60;98.00
4505;DHT22;2265;48.794;9.520;2023-03-31T05:58:27;11.60;98.00
4505;DHT22;2265;48.794;9.520;2023-03-31T06:01:02;11.60;98.00
4505;DHT22;2265;48.794;9.520;2023-03-31T06:03:32;11.60;98.00
4505;DHT22;2265;48.794;9.520;2023-03-31T06:06:00;11.60;98.00
4505;DHT22;2265;48.794;9.520;2023-03-31T06:08:28;11.40;98.00
4505;DHT22;2265;48.794;9.520;2023-03-31T06:10:55;11.40;98.00
4505;DHT22;2265;48.794;9.520;2023-03-31T06:13:22;11.30;98.00
4505;DHT22;2265;48.794;9.520;2023-03-31T06:16:00;11.40;98.00
4505;DHT22;2265;48.794;9.520;2023-03-31T06:18:29;11.30;98.00
4505;DHT22;2265;48.794;9.520;2023-03-31T06:20:56;11.20;98.00
4505;DHT22;2265;48.794;9.520;2023-03-31T06:23:25;11.20;98.00
4505;DHT22;2265;48.794;9.520;2023-03-31T06:25:53;11.10;98.00
4505;DHT22;2265;48.794;9.520;2023-03-31T06:28:20;11.00;98.00
4505;DHT22;2265;48.794;9.520;2023-03-31T06:30:47;10.90;98.00
4505;DHT22;2265;48.794;9.520;2023-03-31T06:33:14;10.90;98.00
4505;DHT22;2265;48.794;9.520;2023-03-31T06:35:42;10.90;98.00
4505;DHT22;2265;48.794;9.520;2023-03-31T06:38:09;10.80;98.00
4505;DHT22;2265;48.794;9.520;2023-03-31T06:40:37;10.90;98.00
4505;DHT22;2265;48.794;9.520;2023-03-31T06:43:05;11.00;98.00
4505;DHT22;2265;48.794;9.520;2023-03-31T06:45:33;11.10;98.00
4505;DHT22;2265;48.794;9.520;2023-03-31T06:48:00;11.10;98.00
4505;DHT22;2265;48.794;9.520;2023-03-31T06:50:27;11.10;98.00
4505;DHT22;2265;48.794;9.520;2023-03-31T06:52:54;11.10;98.00
4505;DHT22;2265;48.794;9.520;2023-03-31T06:55:21;11.20;98.00
4505;DHT22;2265;48.794;9.520;2023-03-31T06:57:49;11.20;98.00
4505;DHT22;2265;48.794;9.520;2023-03-31T07:00:17;11.40;98.00
4505;DHT22;2265;48.794;9.520;2023-03-31T07:02:45;11.20;98.00
4505;DHT22;2265;48.794;9.520;2023-03-31T07:05:12;11.10;98.00
4505;DHT22;2265;48.794;9.520;2023-03-31T07:07:39;11.00;98.00
4505;DHT22;2265;48.794;9.520;2023-03-31T07:10:07;11.10;98.00
4505;DHT22;2265;48.794;9.520;2023-03-31T07:12:34;11.00;98.00
4505;DHT22;2265;48.794;9.520;2023-03-31T07:15:03;11.00;98.00
4505;DHT22;2265;48.794;9.520;2023-03-31T07:17:30;10.90;98.00
4505;DHT22;2265;48.794;9.520;2023-03-31T07:20:07;10.80;98.00
4505;DHT22;2265;48.794;9.520;2023-03-31T07:22:38;10.70;98.00
4505;DHT22;2265;48.794;9.520;2023-03-31T07:25:06;10.70;98.00
4505;DHT22;2265;48.794;9.520;2023-03-31T07:27:33;10.80;98.00
4505;DHT22;2265;48.794;9.520;2023-03-31T07:30:03;10.70;98.00
4505;DHT22;2265;48.794;9.520;2023-03-31T07:32:30;10.80;98.00
4505;DHT22;2265;48.794;9.520;2023-03-31T07:34:57;10.80;98.00
4505;DHT22;2265;48.794;9.520;2023-03-31T07:37:25;10.90;98.00
4505;DHT22;2265;48.794;9.520;2023-03-31T07:39:53;11.00;98.00
4505;DHT22;2265;48.794;9.520;2023-03-31T07:42:30;11.00;98.00
4505;DHT22;2265;48.794;9.520;2023-03-31T07:44:58;11.10;98.00
4505;DHT22;2265;48.794;9.520;2023-03-31T07:47:28;11.10;98.00
4505;DHT22;2265;48.794;9.520;2023-03-31T07:49:55;11.10;98.00
4505;DHT22;2265;48.794;9.520;2023-03-31T07:52:22;11.10;98.00
4505;DHT22;2265;48.794;9.520;2023-03-31T07:54:50;11.10;98.00
4505;DHT22;2265;48.794;9.520;2023-03-31T07:57:17;11.10;98.00
4505;DHT22;2265;48.794;9.520;2023-03-31T07:59:45;11.10;98.00
4505;DHT22;2265;48.794;9.520;2023-03-31T08:02:14;11.10;98.00
4505;DHT22;2265;48.794;9.520;2023-03-31T08:04:43;11.20;98.00
4505;DHT22;2265;48.794;9.520;2023-03-31T08:07:12;11.30;98.00
4505;DHT22;2265;48.794;9.520;2023-03-31T08:09:40;11.20;98.00
4505;DHT22;2265;48.794;9.520;2023-03-31T08:12:08;11.20;98.00
4505;DHT22;2265;48.794;9.520;2023-03-31T08:14:36;11.20;98.00
4505;DHT22;2265;48.794;9.520;2023-03-31T08:17:03;11.20;98.00
4505;DHT22;2265;48.794;9.520;2023-03-31T08:19:30;11.30;98.00
4505;DHT22;2265;48.794;9.520;2023-03-31T08:21:59;11.40;98.00
4505;DHT22;2265;48.794;9.520;2023-03-31T08:24:26;11.50;98.00
4505;DHT22;2265;48.794;9.520;2023-03-31T08:26:53;11.50;98.00
4505;DHT22;2265;48.794;9.520;2023-03-31T08:29:21;11.70;98.00
4505;DHT22;2265;48.794;9.520;2023-03-31T08:31:48;11.80;98.00
4505;DHT22;2265;48.794;9.520;2023-03-31T08:34:28;12.00;98.00
4505;DHT22;2265;48.794;9.520;2023-03-31T08:36:55;12.10;98.00
4505;DHT22;2265;48.794;9.520;2023-03-31T08:39:24;12.20;98.00
4505;DHT22;2265;48.794;9.520;2023-03-31T08:41:57;12.30;98.00
4505;DHT22;2265;48.794;9.520;2023-03-31T08:44:30;12.40;98.00
4505;DHT22;2265;48.794;9.520;2023-03-31T08:47:00;12.50;98.00
4505;DHT22;2265;48.794;9.520;2023-03-31T08:49:30;12.70;98.00
4505;DHT22;2265;48.794;9.520;2023-03-31T08:52:02;12.80;98.00
4505;DHT22;2265;48.794;9.520;2023-03-31T08:54:34;12.90;98.00
4505;DHT22;2265;48.794;9.520;2023-03-31T08:57:09;13.00;98.00
4505;DHT22;2265;48.794;9.520;2023-03-31T08:59:38;13.10;98.00
4505;DHT22;2265;48.794;9.520;2023-03-31T09:02:15;13.30;98.00
4505;DHT22;2265;48.794;9.520;2023-03-31T09:08:02;13.50;98.00
4505;DHT22;2265;48.794;9.520;2023-03-31T09:10:40;13.60;98.00
4505;DHT22;2265;48.794;9.520;2023-03-31T09:13:31;13.80;98.00
4505;DHT22;2265;48.794;9.520;2023-03-31T09:16:09;13.80;98.00
4505;DHT22;2265;48.794;9.520;2023-03-31T09:18:40;14.00;98.00
4505;DHT22;2265;48.794;9.520;2023-03-31T09:21:16;14.10;98.00
4505;DHT22;2265;48.794;9.520;2023-03-31T09:23:47;14.30;98.00
4505;DHT22;2265;48.794;9.520;2023-03-31T09:26:23;14.50;98.00
4505;DHT22;2265;48.794;9.520;2023-03-31T09:28:53;14.40;98.00
4505;DHT22;2265;48.794;9.520;2023-03-31T09:31:23;14.50;98.00
4505;DHT22;2265;48.794;9.520;2023-03-31T09:33:54;14.80;98.00
4505;DHT22;2265;48.794;9.520;2023-03-31T09:36:23;14.90;98.00
4505;DHT22;2265;48.794;9.520;2023-03-31T09:38:50;15.10;98.00
4505;DHT22;2265;48.794;9.520;2023-03-31T09:41:19;15.40;98.00
4505;DHT22;2265;48.794;9.520;2023-03-31T09:43:47;15.60;98.00
4505;DHT22;2265;48.794;9.520;2023-03-31T09:46:18;15.60;98.00
4505;DHT22;2265;48.794;9.520;2023-03-31T09:48:53;15.40;98.00
4505;DHT22;2265;48.794;9.520;2023-03-31T09:51:26;15.30;98.00
4505;DHT22;2265;48.794;9.520;2023-03-31T09:53:57;15.20;98.00
4505;DHT22;2265;48.794;9.520;2023-03-31T09:56:45;15.10;98.00
4505;DHT22;2265;48.794;9.520;2023-03-31T09:59:15;14.90;98.00
4505;DHT22;2265;48.794;9.520;2023-03-31T10:01:44;14.70;98.00
4505;DHT22;2265;48.794;9.520;2023-03-31T10:04:27;14.50;98.00
4505;DHT22;2265;48.794;9.520;2023-03-31T10:06:55;14.50;98.00
4505;DHT22;2265;48.794;9.520;2023-03-31T10:09:25;14.60;98.00
4505;DHT22;2265;48.794;9.520;2023-03-31T10:11:57;14.80;98.00
4505;DHT22;2265;48.794;9.520;2023-03-31T10:14:31;15.20;98.00
4505;DHT22;2265;48.794;9.520;2023-03-31T10:17:03;15.50;98.00
4505;DHT22;2265;48.794;9.520;2023-03-31T10:19:32;16.00;98.00
4505;DHT22;2265;48.794;9.520;2023-03-31T10:22:01;16.30;98.00
4505;DHT22;2265;48.794;9.520;2023-03-31T10:24:36;16.50;98.00
4505;DHT22;2265;48.794;9.520;2023-03-31T10:27:11;16.50;98.00
4505;DHT22;2265;48.794;9.520;2023-03-31T10:29:41;16.50;98.00
4505;DHT22;2265;48.794;9.520;2023-03-31T10:32:13;16.50;98.00
4505;DHT22;2265;48.794;9.520;2023-03-31T10:34:43;16.80;98.00
4505;DHT22;2265;48.794;9.520;2023-03-31T10:37:14;16.80;98.00
4505;DHT22;2265;48.794;9.520;2023-03-31T10:39:43;16.50;98.00
4505;DHT22;2265;48.794;9.520;2023-03-31T10:42:19;16.30;98.00
4505;DHT22;2265;48.794;9.520;2023-03-31T10:44:48;16.70;98.00
4505;DHT22;2265;48.794;9.520;2023-03-31T10:47:19;16.70;98.00
4505;DHT22;2265;48.794;9.520;2023-03-31T10:49:50;16.50;98.00
4505;DHT22;2265;48.794;9.520;2023-03-31T10:52:23;16.80;98.00
4505;DHT22;2265;48.794;9.520;2023-03-31T10:54:53;17.10;98.00
4505;DHT22;2265;48.794;9.520;2023-03-31T10:57:30;17.30;97.10
4505;DHT22;2265;48.794;9.520;2023-03-31T11:00:15;17.10;95.10
4505;DHT22;2265;48.794;9.520;2023-03-31T11:05:42;16.50;97.70
4505;DHT22;2265;48.794;9.520;2023-03-31T11:08:23;16.30;98.00
4505;DHT22;2265;48.794;9.520;2023-03-31T11:13:46;16.60;98.00
4505;DHT22;2265;48.794;9.520;2023-03-31T11:16:21;16.60;98.00
4505;DHT22;2265;48.794;9.520;2023-03-31T11:19:00;16.60;97.90
4505;DHT22;2265;48.794;9.520;2023-03-31T11:21:37;16.60;95.80
4505;DHT22;2265;48.794;9.520;2023-03-31T11:24:16;16.40;97.30
4505;DHT22;2265;48.794;9.520;2023-03-31T11:26:51;16.20;96.00
4505;DHT22;2265;48.794;9.520;2023-03-31T11:29:31;15.90;95.10
4505;DHT22;2265;48.794;9.520;2023-03-31T11:32:15;15.80;97.10
4505;DHT22;2265;48.794;9.520;2023-03-31T11:35:05;15.50;97.90
4505;DHT22;2265;48.794;9.520;2023-03-31T11:37:53;15.30;98.00
4505;DHT22;2265;48.794;9.520;2023-03-31T11:40:37;15.10;98.00
4505;DHT22;2265;48.794;9.520;2023-03-31T11:43:10;14.10;98.00
4505;DHT22;2265;48.794;9.520;2023-03-31T11:45:44;12.80;98.00
4505;DHT22;2265;48.794;9.520;2023-03-31T11:48:19;11.50;98.00
4505;DHT22;2265;48.794;9.520;2023-03-31T11:50:50;11.00;98.00
4505;DHT22;2265;48.794;9.520;2023-03-31T11:53:25;10.40;98.00
4505;DHT22;2265;48.794;9.520;2023-03-31T11:55:54;10.40;98.00
4505;DHT22;2265;48.794;9.520;2023-03-31T11:58:31;10.20;98.00
4505;DHT22;2265;48.794;9.520;2023-03-31T12:01:08;10.10;98.00
4505;DHT22;2265;48.794;9.520;2023-03-31T12:03:46;10.20;98.00
4505;DHT22;2265;48.794;9.520;2023-03-31T12:06:16;10.10;98.00
4505;DHT22;2265;48.794;9.520;2023-03-31T12:08:52;10.10;98.00
4505;DHT22;2265;48.794;9.520;2023-03-31T12:11:26;10.20;98.00
4505;DHT22;2265;48.794;9.520;2023-03-31T12:13:57;10.40;98.00
4505;DHT22;2265;48.794;9.520;2023-03-31T12:16:34;10.50;98.00
4505;DHT22;2265;48.794;9.520;2023-03-31T12:19:07;10.80;98.00
4505;DHT22;2265;48.794;9.520;2023-03-31T12:21:42;11.30;98.00
4505;DHT22;2265;48.794;9.520;2023-03-31T12:24:11;12.30;98.00
4505;DHT22;2265;48.794;9.520;2023-03-31T12:26:44;13.00;98.00
4505;DHT22;2265;48.794;9.520;2023-03-31T12:29:22;13.70;98.00
4505;DHT22;2265;48.794;9.520;2023-03-31T12:31:55;14.40;98.00
4505;DHT22;2265;48.794;9.520;2023-03-31T12:34:25;15.00;98.00
4505;DHT22;2265;48.794;9.520;2023-03-31T12:37:17;15.10;98.00
4505;DHT22;2265;48.794;9.520;2023-03-31T12:39:59;14.60;98.00
4505;DHT22;2265;48.794;9.520;2023-03-31T12:45:30;14.40;98.00
4505;DHT22;2265;48.794;9.520;2023-03-31T12:51:18;15.10;98.00
4505;DHT22;2265;48.794;9.520;2023-03-31T12:53:58;15.40;98.00
4505;DHT22;2265;48.794;9.520;2023-03-31T12:56:27;15.20;98.00
4505;DHT22;2265;48.794;9.520;2023-03-31T12:59:16;15.10;98.00
4505;DHT22;2265;48.794;9.520;2023-03-31T13:02:21;15.30;98.00
4505;DHT22;2265;48.794;9.520;2023-03-31T13:04:51;15.60;98.00
4505;DHT22;2265;48.794;9.520;2023-03-31T13:07:39;15.80;98.00
4505;DHT22;2265;48.794;9.520;2023-03-31T13:10:26;15.80;98.00
4505;DHT22;2265;48.794;9.520;2023-03-31T13:13:00;16.00;98.00
4505;DHT22;2265;48.794;9.520;2023-03-31T13:15:29;16.20;98.00
4505;DHT22;2265;48.794;9.520;2023-03-31T13:17:58;16.30;98.00
4505;DHT22;2265;48.794;9.520;2023-03-31T13:20:32;15.90;98.00
4505;DHT22;2265;48.794;9.520;2023-03-31T13:23:03;16.00;98.00
4505;DHT22;2265;48.794;9.520;2023-03-31T13:25:44;15.80;98.00
4505;DHT22;2265;48.794;9.520;2023-03-31T13:28:17;15.30;98.00
4505;DHT22;2265;48.794;9.520;2023-03-31T13:30:52;14.90;98.00
4505;DHT22;2265;48.794;9.520;2023-03-31T13:33:23;14.60;98.00
4505;DHT22;2265;48.794;9.520;2023-03-31T13:38:52;14.30;98.00
4505;DHT22;2265;48.794;9.520;2023-03-31T13:41:29;14.10;98.00
4505;DHT22;2265;48.794;9.520;2023-03-31T13:50:34;13.40;98.00
4505;DHT22;2265;48.794;9.520;2023-03-31T13:53:12;13.10;98.00
4505;DHT22;2265;48.794;9.520;2023-03-31T13:55:54;12.80;98.00
4505;DHT22;2265;48.794;9.520;2023-03-31T13:58:40;12.60;98.00
4505;DHT22;2265;48.794;9.520;2023-03-31T14:01:30;12.40;98.00
4505;DHT22;2265;48.794;9.520;2023-03-31T14:04:13;12.20;98.00
4505;DHT22;2265;48.794;9.520;2023-03-31T14:06:47;12.00;98.00
4505;DHT22;2265;48.794;9.520;2023-03-31T14:09:22;11.90;98.00
4505;DHT22;2265;48.794;9.520;2023-03-31T14:11:51;11.60;98.00
4505;DHT22;2265;48.794;9.520;2023-03-31T14:14:19;11.40;98.00
4505;DHT22;2265;48.794;9.520;2023-03-31T14:16:50;11.20;98.00
4505;DHT22;2265;48.794;9.520;2023-03-31T14:19:49;11.00;98.00
4505;DHT22;2265;48.794;9.520;2023-03-31T14:22:25;10.90;98.00
4505;DHT22;2265;48.794;9.520;2023-03-31T14:25:04;10.90;98.00
4505;DHT22;2265;48.794;9.520;2023-03-31T14:27:45;10.90;98.00
4505;DHT22;2265;48.794;9.520;2023-03-31T14:30:20;10.90;98.00
4505;DHT22;2265;48.794;9.520;2023-03-31T14:33:00;11.20;98.00
4505;DHT22;2265;48.794;9.520;2023-03-31T14:35:33;11.70;98.00
4505;DHT22;2265;48.794;9.520;2023-03-31T14:38:07;12.50;98.00
4505;DHT22;2265;48.794;9.520;2023-03-31T14:40:44;13.20;98.00
4505;DHT22;2265;48.794;9.520;2023-03-31T14:43:17;14.00;98.00
4505;DHT22;2265;48.794;9.520;2023-03-31T14:45:47;14.60;98.00
4505;DHT22;2265;48.794;9.520;2023-03-31T14:48:18;14.10;98.00
4505;DHT22;2265;48.794;9.520;2023-03-31T14:50:46;13.60;98.00
4505;DHT22;2265;48.794;9.520;2023-03-31T14:53:15;13.10;98.00
4505;DHT22;2265;48.794;9.520;2023-03-31T14:55:44;13.10;98.00
4505;DHT22;2265;48.794;9.520;2023-03-31T14:58:15;13.60;98.00
4505;DHT22;2265;48.794;9.520;2023-03-31T15:00:46;14.00;98.00
4505;DHT22;2265;48.794;9.520;2023-03-31T15:03:14;14.30;98.00
4505;DHT22;2265;48.794;9.520;2023-03-31T15:05:42;14.30;98.00
4505;DHT22;2265;48.794;9.520;2023-03-31T15:08:15;14.50;98.00
4505;DHT22;2265;48.794;9.520;2023-03-31T15:10:55;14.50;98.00
4505;DHT22;2265;48.794;9.520;2023-03-31T15:13:28;14.60;98.00
4505;DHT22;2265;48.794;9.520;2023-03-31T15:15:58;15.10;98.00
4505;DHT22;2265;48.794;9.520;2023-03-31T15:18:25;15.60;98.00
4505;DHT22;2265;48.794;9.520;2023-03-31T15:20:53;15.90;98.00
4505;DHT22;2265;48.794;9.520;2023-03-31T15:23:22;16.20;98.00
4505;DHT22;2265;48.794;9.520;2023-03-31T15:25:57;16.70;98.00
4505;DHT22;2265;48.794;9.520;2023-03-31T15:28:27;17.00;98.00
4505;DHT22;2265;48.794;9.520;2023-03-31T15:30:56;16.90;98.00
4505;DHT22;2265;48.794;9.520;2023-03-31T15:33:33;17.10;98.00
4505;DHT22;2265;48.794;9.520;2023-03-31T15:36:07;16.90;98.00
4505;DHT22;2265;48.794;9.520;2023-03-31T15:38:34;16.30;98.00
4505;DHT22;2265;48.794;9.520;2023-03-31T15:41:10;15.90;98.00
4505;DHT22;2265;48.794;9.520;2023-03-31T15:43:45;15.50;98.00
4505;DHT22;2265;48.794;9.520;2023-03-31T15:46:18;15.10;98.00
4505;DHT22;2265;48.794;9.520;2023-03-31T15:48:50;14.90;98.00
4505;DHT22;2265;48.794;9.520;2023-03-31T15:51:23;14.40;98.00
4505;DHT22;2265;48.794;9.520;2023-03-31T15:53:51;14.30;98.00
4505;DHT22;2265;48.794;9.520;2023-03-31T15:56:30;13.90;98.00
4505;DHT22;2265;48.794;9.520;2023-03-31T15:58:59;13.90;98.00
4505;DHT22;2265;48.794;9.520;2023-03-31T16:01:29;13.90;98.00
4505;DHT22;2265;48.794;9.520;2023-03-31T16:03:58;13.60;98.00
4505;DHT22;2265;48.794;9.520;2023-03-31T16:06:33;13.30;98.00
4505;DHT22;2265;48.794;9.520;2023-03-31T16:09:04;13.20;98.00
4505;DHT22;2265;48.794;9.520;2023-03-31T16:11:37;13.10;98.00
4505;DHT22;2265;48.794;9.520;2023-03-31T16:14:11;13.00;98.00
4505;DHT22;2265;48.794;9.520;2023-03-31T16:16:39;12.90;98.00
4505;DHT22;2265;48.794;9.520;2023-03-31T16:19:11;12.90;98.00
4505;DHT22;2265;48.794;9.520;2023-03-31T16:21:45;12.90;98.00
4505;DHT22;2265;48.794;9.520;2023-03-31T16:24:15;12.70;98.00
4505;DHT22;2265;48.794;9.520;2023-03-31T16:26:44;12.60;98.00
4505;DHT22;2265;48.794;9.520;2023-03-31T16:29:19;12.50;98.00
4505;DHT22;2265;48.794;9.520;2023-03-31T16:31:46;12.50;98.00
4505;DHT22;2265;48.794;9.520;2023-03-31T16:34:14;12.40;98.00
4505;DHT22;2265;48.794;9.520;2023-03-31T16:36:41;12.40;98.00
4505;DHT22;2265;48.794;9.520;2023-03-31T16:39:08;12.30;98.00
4505;DHT22;2265;48.794;9.520;2023-03-31T16:41:36;12.30;98.00
4505;DHT22;2265;48.794;9.520;2023-03-31T16:44:05;12.20;98.00
4505;DHT22;2265;48.794;9.520;2023-03-31T16:46:33;12.20;98.00
4505;DHT22;2265;48.794;9.520;2023-03-31T16:49:01;12.20;98.00
4505;DHT22;2265;48.794;9.520;2023-03-31T16:51:28;12.20;98.00
4505;DHT22;2265;48.794;9.520;2023-03-31T16:53:56;12.20;98.00
4505;DHT22;2265;48.794;9.520;2023-03-31T16:56:23;12.20;98.00
4505;DHT22;2265;48.794;9.520;2023-03-31T16:58:51;12.20;98.00
4505;DHT22;2265;48.794;9.520;2023-03-31T17:01:20;12.20;98.00
4505;DHT22;2265;48.794;9.520;2023-03-31T17:03:47;12.10;98.00